Time;durP1;ratioP1;P1;durP2;ratioP2;P2;SDS_P1;SDS_P2;PMS_P1;PMS_P2;Temp;Humidity;BMP_temperature;BMP_pressure;BME280_temperature;BME280_humidity;BME280_pressure;Samples;Min_cycle;Max_cycle;Signal;HPM_P1;HPM_P2
2022/09/15 00:01:25;;;;;;;7.93;2.38;;;13.40;99.90;;;;;;4942476;29;20138;-87
2022/09/15 00:03:51;;;;;;;7.00;2.70;;;13.40;99.90;;;;;;4948851;29;20131;-88
2022/09/15 00:06:19;;;;;;;6.60;3.10;;;13.50;99.90;;;;;;4937127;29;20102;-87
2022/09/15 00:08:45;;;;;;;8.05;2.58;;;13.60;99.90;;;;;;4951699;29;20131;-87
2022/09/15 00:11:23;;;;;;;7.97;2.95;;;13.60;99.90;;;;;;4952667;29;20039;-87
2022/09/15 00:13:50;;;;;;;10.57;3.40;;;13.60;99.90;;;;;;4953837;29;20523;-88
2022/09/15 00:16:18;;;;;;;10.30;3.30;;;13.70;99.90;;;;;;4947769;29;20052;-87
2022/09/15 00:18:44;;;;;;;7.93;3.78;;;13.80;99.90;;;;;;4952211;29;20055;-87
2022/09/15 00:21:16;;;;;;;4.75;2.65;;;13.80;99.90;;;;;;4936305;29;20054;-87
2022/09/15 00:23:43;;;;;;;6.97;2.75;;;13.70;99.90;;;;;;4952935;29;20058;-87
2022/09/15 00:26:12;;;;;;;8.50;3.15;;;13.90;99.90;;;;;;4936161;29;20082;-88
2022/09/15 00:28:38;;;;;;;8.93;2.70;;;14.00;99.90;;;;;;4950866;29;20158;-88
2022/09/15 00:31:06;;;;;;;6.40;3.05;;;14.00;99.90;;;;;;4953541;29;20819;-89
2022/09/15 00:33:32;;;;;;;9.00;3.50;;;14.10;99.90;;;;;;4954296;29;20708;-88
2022/09/15 00:36:02;;;;;;;10.65;2.70;;;14.10;99.90;;;;;;4934926;29;20051;-88
2022/09/15 00:38:28;;;;;;;6.88;2.80;;;14.10;99.90;;;;;;4945517;29;20083;-88
2022/09/15 00:40:56;;;;;;;6.72;3.03;;;14.10;99.90;;;;;;4945037;29;20485;-88
2022/09/15 00:43:41;;;;;;;7.55;2.25;;;14.20;99.90;;;;;;4950513;29;20044;-88
2022/09/15 00:46:08;;;;;;;7.47;2.28;;;14.20;99.90;;;;;;4931478;29;20535;-88
2022/09/15 00:48:36;;;;;;;9.82;2.50;;;14.20;99.90;;;;;;4936322;29;20484;-88
2022/09/15 00:51:04;;;;;;;8.75;2.92;;;14.20;99.90;;;;;;4936332;29;20058;-87
2022/09/15 00:53:32;;;;;;;6.88;2.50;;;14.20;99.90;;;;;;4937642;29;20047;-88
2022/09/15 00:55:59;;;;;;;6.72;2.03;;;14.20;99.90;;;;;;4951070;29;20070;-89
2022/09/15 00:58:31;;;;;;;9.93;2.58;;;14.20;99.90;;;;;;4950941;29;20109;-87
2022/09/15 01:00:59;;;;;;;7.47;2.42;;;14.20;99.90;;;;;;4947457;29;20044;-88
2022/09/15 01:03:28;;;;;;;8.07;2.65;;;14.20;99.90;;;;;;4946274;28;20059;-88
2022/09/15 01:05:58;;;;;;;6.70;2.63;;;14.20;99.90;;;;;;4943675;29;20476;-88
2022/09/15 01:08:42;;;;;;;7.78;2.10;;;14.20;99.90;;;;;;4916812;29;20051;-88
2022/09/15 01:11:08;;;;;;;6.93;2.80;;;14.10;99.90;;;;;;4949329;29;20480;-88
2022/09/15 01:13:33;;;;;;;7.00;2.40;;;14.20;99.90;;;;;;4948429;29;20089;-87
2022/09/15 01:16:21;;;;;;;7.45;2.13;;;14.20;99.90;;;;;;4932704;29;20039;-88
2022/09/15 01:18:57;;;;;;;7.15;2.75;;;14.20;99.90;;;;;;4951420;28;20051;-88
2022/09/15 01:21:56;;;;;;;9.25;2.47;;;14.20;99.90;;;;;;4948693;29;20479;-89
2022/09/15 01:24:43;;;;;;;5.53;2.25;;;14.20;99.90;;;;;;4944942;29;20062;-88
2022/09/15 01:27:35;;;;;;;7.53;2.33;;;14.10;99.90;;;;;;4944767;29;20098;-87
2022/09/15 01:30:03;;;;;;;4.05;2.03;;;14.10;99.90;;;;;;4921871;29;20059;-88
2022/09/15 01:35:37;;;;;;;5.78;2.55;;;14.10;99.90;;;;;;4947379;28;20198;-88
2022/09/15 01:38:35;;;;;;;8.68;2.53;;;14.10;99.90;;;;;;4942310;29;20047;-87
2022/09/15 01:41:07;;;;;;;5.80;2.50;;;14.00;99.90;;;;;;4916034;29;20087;-89
2022/09/15 01:43:38;;;;;;;9.32;2.78;;;14.00;99.90;;;;;;4946099;29;20062;-87
2022/09/15 01:46:05;;;;;;;8.90;2.58;;;14.00;99.90;;;;;;4929062;29;20079;-87
2022/09/15 01:48:33;;;;;;;9.80;2.47;;;14.00;99.90;;;;;;4931340;29;20054;-87
2022/09/15 01:51:02;;;;;;;7.22;2.47;;;14.00;99.90;;;;;;4930725;29;20043;-87
2022/09/15 01:53:28;;;;;;;4.60;2.30;;;14.00;99.90;;;;;;4949318;29;20039;-87
2022/09/15 01:56:06;;;;;;;5.93;2.53;;;13.90;99.90;;;;;;4931271;29;20051;-88
2022/09/15 01:58:33;;;;;;;5.72;2.60;;;13.90;99.90;;;;;;4931200;29;20051;-88
2022/09/15 02:01:04;;;;;;;7.35;2.75;;;13.90;99.90;;;;;;4931964;29;20448;-88
2022/09/15 02:03:43;;;;;;;8.20;2.42;;;14.10;99.90;;;;;;4939002;28;20051;-88
2022/09/15 02:06:21;;;;;;;6.28;2.00;;;13.90;99.90;;;;;;4951132;28;20133;-87
2022/09/15 02:09:01;;;;;;;6.50;2.63;;;13.80;99.90;;;;;;4948360;28;20512;-88
2022/09/15 02:11:29;;;;;;;5.47;2.25;;;13.80;99.90;;;;;;4951271;28;20051;-88
2022/09/15 02:14:16;;;;;;;5.97;2.30;;;13.80;99.90;;;;;;4931940;29;20058;-87
2022/09/15 02:16:47;;;;;;;7.85;2.10;;;13.80;99.90;;;;;;4949299;28;20059;-87
2022/09/15 02:19:35;;;;;;;7.05;2.00;;;13.80;99.90;;;;;;4955515;28;20043;-88
2022/09/15 02:22:22;;;;;;;7.03;2.55;;;13.80;99.90;;;;;;4949831;28;20051;-87
2022/09/15 02:25:20;;;;;;;6.70;1.98;;;13.80;99.90;;;;;;4934978;29;20043;-88
2022/09/15 02:27:50;;;;;;;6.20;1.25;;;13.80;99.90;;;;;;4937174;28;20039;-87
2022/09/15 02:30:18;;;;;;;10.65;1.52;;;13.90;99.90;;;;;;4934852;29;20054;-87
2022/09/15 02:32:55;;;;;;;10.35;1.10;;;13.90;99.90;;;;;;4951977;28;20090;-87
2022/09/15 02:35:23;;;;;;;9.50;1.67;;;14.00;99.90;;;;;;4950438;28;20039;-88
2022/09/15 02:37:50;;;;;;;7.35;1.20;;;14.00;99.90;;;;;;4939685;28;20055;-87
2022/09/15 02:40:16;;;;;;;6.10;0.90;;;14.00;99.90;;;;;;4938206;28;20059;-87
2022/09/15 02:42:52;;;;;;;4.55;0.93;;;14.00;99.90;;;;;;4952405;28;20050;-87
2022/09/15 02:45:18;;;;;;;7.50;1.02;;;14.00;99.90;;;;;;4953485;28;20044;-87
2022/09/15 02:47:44;;;;;;;9.73;1.52;;;14.00;99.90;;;;;;4956205;28;20396;-87
2022/09/15 02:50:10;;;;;;;14.48;1.40;;;14.00;99.90;;;;;;4958974;28;20043;-87
2022/09/15 02:52:36;;;;;;;7.55;1.00;;;14.00;99.90;;;;;;4951111;28;20432;-87
2022/09/15 02:55:03;;;;;;;7.78;1.08;;;14.00;99.90;;;;;;4954907;28;20041;-87
2022/09/15 02:57:28;;;;;;;4.45;0.93;;;14.00;99.90;;;;;;4958225;28;20083;-87
2022/09/15 03:00:13;;;;;;;6.68;1.00;;;14.00;99.90;;;;;;4952585;28;20480;-87
2022/09/15 03:02:39;;;;;;;;;;;14.00;99.90;;;;;;4952409;28;20047;-87
2022/09/15 03:05:07;;;;;;;6.65;1.15;;;13.90;99.90;;;;;;4942674;28;20401;-87
2022/09/15 03:07:32;;;;;;;5.20;1.35;;;13.90;99.90;;;;;;4951387;28;20039;-88
2022/09/15 03:09:58;;;;;;;4.57;1.10;;;13.90;99.90;;;;;;4952909;28;20039;-87
2022/09/15 03:12:25;;;;;;;7.03;0.85;;;13.90;99.90;;;;;;4951911;28;20118;-87
2022/09/15 03:14:51;;;;;;;6.40;1.20;;;13.90;99.90;;;;;;4956395;28;20035;-88
2022/09/15 03:17:17;;;;;;;4.75;0.80;;;13.90;99.90;;;;;;4951841;28;20084;-88
2022/09/15 03:19:43;;;;;;;5.18;0.82;;;13.90;99.90;;;;;;4950426;28;20094;-88
2022/09/15 03:22:09;;;;;;;7.72;0.93;;;13.90;99.90;;;;;;4959892;28;20043;-87
2022/09/15 03:24:36;;;;;;;8.55;1.75;;;13.90;99.90;;;;;;4951694;28;20660;-87
2022/09/15 03:27:03;;;;;;;4.32;0.90;;;13.90;99.90;;;;;;4953429;28;20090;-87
2022/09/15 03:29:28;;;;;;;7.88;1.10;;;13.90;99.90;;;;;;4958739;28;20051;-88
2022/09/15 03:31:54;;;;;;;4.55;0.90;;;13.90;99.90;;;;;;4951251;28;20041;-87
2022/09/15 03:34:20;;;;;;;7.05;0.95;;;13.90;99.90;;;;;;4940396;28;20494;-88
2022/09/15 03:36:45;;;;;;;6.50;0.70;;;13.90;99.90;;;;;;4951024;28;20039;-87
2022/09/15 03:39:12;;;;;;;7.82;0.85;;;13.90;99.90;;;;;;4951393;28;20126;-87
2022/09/15 03:41:37;;;;;;;5.50;0.88;;;13.90;99.90;;;;;;4956247;28;20081;-87
2022/09/15 03:44:03;;;;;;;5.95;1.00;;;13.90;99.90;;;;;;4934718;29;20090;-87
2022/09/15 03:46:29;;;;;;;6.03;1.15;;;13.90;99.90;;;;;;4954124;28;20043;-87
2022/09/15 03:48:55;;;;;;;5.70;0.90;;;13.90;99.90;;;;;;4951136;28;20050;-87
2022/09/15 03:51:21;;;;;;;3.75;0.75;;;13.90;99.90;;;;;;4947450;28;20523;-87
2022/09/15 03:53:46;;;;;;;7.55;1.00;;;13.90;99.90;;;;;;4933538;29;20047;-87
2022/09/15 03:56:42;;;;;;;8.65;1.83;;;13.90;99.90;;;;;;4937755;29;20047;-87
2022/09/15 03:59:08;;;;;;;5.20;0.80;;;13.80;99.90;;;;;;4939746;28;20086;-87
2022/09/15 04:01:34;;;;;;;6.85;0.75;;;13.90;99.90;;;;;;4957907;28;20077;-87
2022/09/15 04:04:00;;;;;;;7.78;1.20;;;13.90;99.90;;;;;;4944649;28;20067;-87
2022/09/15 04:06:26;;;;;;;8.18;1.13;;;13.80;99.90;;;;;;4916184;29;20134;-87
2022/09/15 04:08:53;;;;;;;6.80;0.75;;;13.80;99.90;;;;;;4915823;29;20127;-87
2022/09/15 04:11:21;;;;;;;5.05;0.60;;;13.80;99.90;;;;;;4931190;29;20047;-87
2022/09/15 04:13:47;;;;;;;9.07;1.35;;;13.80;99.90;;;;;;4931824;29;20531;-87
2022/09/15 04:16:16;;;;;;;8.63;1.05;;;13.80;99.90;;;;;;4920320;29;20055;-87
2022/09/15 04:18:42;;;;;;;5.85;0.73;;;13.80;99.90;;;;;;4918185;29;20109;-88
2022/09/15 04:21:15;;;;;;;6.72;1.60;;;13.80;99.90;;;;;;4933087;29;20055;-87
2022/09/15 04:23:47;;;;;;;5.32;0.73;;;13.80;99.90;;;;;;4931516;29;20052;-86
2022/09/15 04:26:18;;;;;;;6.18;0.75;;;13.80;99.90;;;;;;4916340;29;20055;-88
2022/09/15 04:28:44;;;;;;;5.65;1.05;;;13.70;99.90;;;;;;4917219;29;20063;-87
2022/09/15 04:31:12;;;;;;;7.40;1.05;;;13.70;99.90;;;;;;4939145;29;20070;-88
2022/09/15 04:33:40;;;;;;;4.10;0.80;;;13.70;99.90;;;;;;4932222;29;20055;-87
2022/09/15 04:36:08;;;;;;;8.10;0.98;;;13.60;99.90;;;;;;4917219;29;20051;-88
2022/09/15 04:38:37;;;;;;;2.65;0.73;;;13.60;99.90;;;;;;4919404;29;20044;-88
2022/09/15 04:41:04;;;;;;;5.05;0.82;;;13.50;99.90;;;;;;4930935;29;20107;-88
2022/09/15 04:43:30;;;;;;;5.85;1.13;;;13.50;99.90;;;;;;4935871;28;20235;-88
2022/09/15 04:45:56;;;;;;;9.50;1.15;;;13.40;99.90;;;;;;4938640;29;20043;-87
2022/09/15 04:48:22;;;;;;;4.88;0.82;;;13.40;99.90;;;;;;4932385;29;20044;-88
2022/09/15 04:50:48;;;;;;;5.05;0.63;;;13.40;99.90;;;;;;4933627;29;20126;-87
2022/09/15 04:53:14;;;;;;;5.00;0.80;;;13.40;99.90;;;;;;4919579;29;20134;-88
2022/09/15 04:55:40;;;;;;;8.60;1.80;;;13.40;99.90;;;;;;4933191;29;20393;-88
2022/09/15 04:58:06;;;;;;;5.15;0.80;;;13.50;99.90;;;;;;4932661;29;20055;-88
2022/09/15 05:00:38;;;;;;;4.80;0.77;;;13.40;99.90;;;;;;4915880;29;20050;-88
2022/09/15 05:03:03;;;;;;;5.13;1.10;;;13.50;99.90;;;;;;4937371;28;20119;-87
2022/09/15 05:05:32;;;;;;;6.72;0.68;;;13.50;99.90;;;;;;4950661;29;20079;-88
2022/09/15 05:07:59;;;;;;;6.30;0.95;;;13.50;99.90;;;;;;4946562;29;20058;-88
2022/09/15 05:10:25;;;;;;;7.22;1.10;;;13.50;99.90;;;;;;4916920;29;20050;-87
2022/09/15 05:12:52;;;;;;;4.05;1.27;;;13.50;99.90;;;;;;4952431;28;20055;-92
2022/09/15 05:15:17;;;;;;;6.82;1.40;;;13.50;99.90;;;;;;4938357;29;20131;-89
2022/09/15 05:17:43;;;;;;;7.43;1.05;;;13.50;99.90;;;;;;4952308;28;20137;-89
2022/09/15 05:20:08;;;;;;;7.22;1.13;;;13.50;99.90;;;;;;4949628;29;20057;-88
2022/09/15 05:22:34;;;;;;;5.07;0.82;;;13.50;99.90;;;;;;4951790;29;20027;-87
2022/09/15 05:25:00;;;;;;;6.70;1.15;;;13.50;99.90;;;;;;4936371;29;20396;-87
2022/09/15 05:27:25;;;;;;;12.27;1.30;;;13.50;99.90;;;;;;4937531;29;20053;-87
2022/09/15 05:29:51;;;;;;;4.80;0.98;;;13.40;99.90;;;;;;4953585;28;20110;-87
2022/09/15 05:32:16;;;;;;;6.10;1.10;;;13.40;99.90;;;;;;4951690;29;20043;-87
2022/09/15 05:34:42;;;;;;;7.90;0.90;;;13.40;99.90;;;;;;4936199;29;20047;-87
2022/09/15 05:37:09;;;;;;;6.53;1.35;;;13.30;99.90;;;;;;4935296;29;20047;-87
2022/09/15 05:39:34;;;;;;;9.07;1.02;;;13.30;99.90;;;;;;4950570;29;20180;-87
2022/09/15 05:42:00;;;;;;;9.13;1.02;;;13.20;99.90;;;;;;4953181;28;20191;-87
2022/09/15 05:44:25;;;;;;;7.07;1.02;;;13.20;99.90;;;;;;4935766;29;20047;-87
2022/09/15 05:46:51;;;;;;;4.47;0.77;;;13.10;99.90;;;;;;4935058;29;20050;-86
2022/09/15 05:49:17;;;;;;;8.57;1.15;;;13.10;99.90;;;;;;4936754;29;20051;-87
2022/09/15 05:51:42;;;;;;;5.55;0.95;;;13.20;99.90;;;;;;4948972;28;20039;-87
2022/09/15 05:54:08;;;;;;;7.40;1.13;;;13.10;99.90;;;;;;4952473;28;20480;-87
2022/09/15 05:56:34;;;;;;;10.27;1.10;;;13.10;99.90;;;;;;4919781;29;20043;-87
2022/09/15 05:58:59;;;;;;;4.90;1.02;;;13.10;99.90;;;;;;4952119;28;20120;-87
2022/09/15 06:01:27;;;;;;;6.20;1.30;;;13.20;99.90;;;;;;4950703;28;20043;-85
2022/09/15 06:03:54;;;;;;;5.68;0.75;;;13.20;99.90;;;;;;4934065;29;20515;-87
2022/09/15 06:06:21;;;;;;;8.60;1.00;;;13.30;99.90;;;;;;4934126;29;20091;-86
2022/09/15 06:08:49;;;;;;;7.65;1.00;;;13.30;99.90;;;;;;4952070;29;20154;-86
2022/09/15 06:11:18;;;;;;;10.10;1.30;;;13.40;99.90;;;;;;4954535;28;20043;-86
2022/09/15 06:13:44;;;;;;;9.80;0.82;;;13.40;99.90;;;;;;4937740;29;20059;-87
2022/09/15 06:16:12;;;;;;;8.27;1.30;;;13.50;99.90;;;;;;4947761;29;20035;-93
2022/09/15 06:18:39;;;;;;;10.00;1.70;;;13.50;99.90;;;;;;4948539;29;20492;-86
2022/09/15 06:21:13;;;;;;;11.35;1.05;;;13.50;99.90;;;;;;4948623;29;20505;-86
2022/09/15 06:23:39;;;;;;;6.30;0.93;;;13.60;99.90;;;;;;4948814;29;20043;-85
2022/09/15 06:26:14;;;;;;;8.40;1.42;;;13.60;99.90;;;;;;4931317;29;20106;-85
2022/09/15 06:28:43;;;;;;;9.55;1.10;;;13.70;99.90;;;;;;4929552;29;20054;-85
2022/09/15 06:31:11;;;;;;;8.73;1.00;;;13.80;99.90;;;;;;4947998;29;20054;-85
2022/09/15 06:33:40;;;;;;;3.80;0.90;;;13.80;99.90;;;;;;4930139;29;20500;-85
2022/09/15 06:36:06;;;;;;;6.32;1.10;;;13.90;99.90;;;;;;4941996;28;20425;-86
2022/09/15 06:38:32;;;;;;;9.05;1.25;;;13.90;99.90;;;;;;4947103;29;20036;-86
2022/09/15 06:40:58;;;;;;;7.75;0.98;;;14.00;99.90;;;;;;4931406;29;20054;-86
2022/09/15 06:43:24;;;;;;;8.05;0.98;;;14.10;99.90;;;;;;4948303;29;20039;-86
2022/09/15 06:45:51;;;;;;;5.68;0.80;;;14.10;99.90;;;;;;4949113;29;20043;-86
2022/09/15 06:48:17;;;;;;;5.72;1.00;;;14.20;99.90;;;;;;4948275;28;20510;-86
2022/09/15 06:50:43;;;;;;;6.47;1.25;;;14.30;99.90;;;;;;4949087;28;20118;-86
2022/09/15 06:53:09;;;;;;;7.60;1.15;;;14.40;99.90;;;;;;4947660;29;20083;-86
2022/09/15 06:55:35;;;;;;;5.47;1.15;;;14.40;99.90;;;;;;4931200;29;20114;-85
2022/09/15 06:58:00;;;;;;;4.20;1.02;;;14.50;99.90;;;;;;4949061;29;20764;-85
2022/09/15 07:00:27;;;;;;;10.82;1.05;;;14.50;99.90;;;;;;4931163;29;20047;-85
2022/09/15 07:02:52;;;;;;;7.32;1.00;;;14.60;99.90;;;;;;4930648;29;20083;-86
2022/09/15 07:05:18;;;;;;;5.05;1.40;;;14.60;99.90;;;;;;4929569;29;20134;-86
2022/09/15 07:07:43;;;;;;;4.53;1.00;;;14.60;99.90;;;;;;4932622;29;20100;-85
2022/09/15 07:10:09;;;;;;;6.25;0.70;;;14.70;99.90;;;;;;4933648;29;20058;-86
2022/09/15 07:12:35;;;;;;;6.85;0.90;;;14.70;99.90;;;;;;4916284;29;20508;-86
2022/09/15 07:15:00;;;;;;;6.32;1.20;;;14.70;99.90;;;;;;4933516;29;20477;-86
2022/09/15 07:17:27;;;;;;;6.90;1.30;;;14.80;99.90;;;;;;4932830;29;20051;-86
2022/09/15 07:19:52;;;;;;;9.48;1.20;;;14.90;99.90;;;;;;4931500;29;20665;-85
2022/09/15 07:22:18;;;;;;;6.22;1.08;;;14.90;99.90;;;;;;4915336;29;20056;-85
2022/09/15 07:24:44;;;;;;;5.93;0.98;;;14.90;99.90;;;;;;4916866;29;20051;-86
2022/09/15 07:27:09;;;;;;;7.63;0.80;;;14.90;99.90;;;;;;4932287;29;20051;-85
2022/09/15 07:29:37;;;;;;;7.78;1.10;;;15.00;99.90;;;;;;4932950;29;20031;-86
2022/09/15 07:32:02;;;;;;;5.75;0.77;;;15.00;99.90;;;;;;4932961;29;20119;-85
2022/09/15 07:34:28;;;;;;;5.20;0.85;;;15.00;99.90;;;;;;4932829;29;20070;-86
2022/09/15 07:36:53;;;;;;;6.97;0.82;;;15.00;99.90;;;;;;4916507;29;20082;-86
2022/09/15 07:39:19;;;;;;;4.95;0.80;;;15.10;99.90;;;;;;4914487;29;20779;-86
2022/09/15 07:41:45;;;;;;;7.78;1.23;;;15.20;99.90;;;;;;4916317;29;20050;-85
2022/09/15 07:44:12;;;;;;;5.63;0.85;;;15.30;99.90;;;;;;4932264;29;20047;-85
2022/09/15 07:46:37;;;;;;;3.90;0.90;;;15.40;99.90;;;;;;4930373;29;20040;-86
2022/09/15 07:49:03;;;;;;;7.60;1.25;;;15.40;99.90;;;;;;4914380;29;20142;-85
2022/09/15 07:51:30;;;;;;;6.60;1.20;;;15.60;99.90;;;;;;4916646;29;20123;-86
2022/09/15 07:53:55;;;;;;;7.72;0.93;;;15.70;99.90;;;;;;4915947;29;20079;-86
2022/09/15 07:56:22;;;;;;;5.95;0.88;;;15.70;99.90;;;;;;4913888;29;20448;-87
2022/09/15 07:58:49;;;;;;;6.15;1.20;;;15.80;99.90;;;;;;4914442;29;20044;-85
2022/09/15 08:01:17;;;;;;;7.82;0.75;;;15.80;99.90;;;;;;4930567;29;20411;-84
2022/09/15 08:03:45;;;;;;;4.90;0.85;;;15.80;99.90;;;;;;4919498;29;20069;-86
2022/09/15 08:06:11;;;;;;;4.80;0.50;;;15.80;99.90;;;;;;4932154;29;20043;-85
2022/09/15 08:08:38;;;;;;;5.47;0.75;;;15.90;99.90;;;;;;4929581;29;20079;-85
2022/09/15 08:11:09;;;;;;;3.90;0.80;;;16.10;99.90;;;;;;4925718;29;20493;-85
2022/09/15 08:13:35;;;;;;;7.78;1.00;;;15.90;99.90;;;;;;4929115;29;20044;-85
2022/09/15 08:16:12;;;;;;;5.57;0.90;;;15.90;99.90;;;;;;4929115;29;20044;-85
2022/09/15 08:18:38;;;;;;;5.10;0.88;;;15.80;99.90;;;;;;4931387;29;20107;-86
2022/09/15 08:21:05;;;;;;;4.28;1.17;;;15.80;99.90;;;;;;4928452;29;20047;-86
2022/09/15 08:23:31;;;;;;;5.43;0.70;;;15.80;99.90;;;;;;4930489;29;20050;-85
2022/09/15 08:25:57;;;;;;;3.00;0.60;;;15.90;99.90;;;;;;4929755;29;20142;-84
2022/09/15 08:28:22;;;;;;;7.20;1.38;;;16.00;99.90;;;;;;4927136;29;20079;-85
2022/09/15 08:30:48;;;;;;;5.05;1.13;;;16.10;99.90;;;;;;4926226;29;20448;-86
2022/09/15 08:33:14;;;;;;;6.00;0.70;;;16.20;99.90;;;;;;4930178;29;20058;-86
2022/09/15 08:35:39;;;;;;;5.65;0.75;;;16.30;99.90;;;;;;4931616;29;20039;-87
2022/09/15 08:38:05;;;;;;;10.32;1.00;;;16.40;99.90;;;;;;4925481;29;20508;-86
2022/09/15 08:40:35;;;;;;;6.90;0.98;;;16.50;99.90;;;;;;4927006;29;20044;-86
2022/09/15 08:43:11;;;;;;;9.30;0.95;;;16.50;99.90;;;;;;4931424;29;20048;-87
2022/09/15 08:45:54;;;;;;;4.80;0.90;;;16.60;99.90;;;;;;4931407;29;20043;-86
2022/09/15 08:48:26;;;;;;;4.63;0.80;;;16.70;99.90;;;;;;4931007;29;20050;-86
2022/09/15 08:50:54;;;;;;;5.75;0.95;;;16.80;99.90;;;;;;4930290;29;20575;-86
2022/09/15 08:53:36;;;;;;;6.03;0.82;;;16.80;99.90;;;;;;4929665;29;20046;-86
2022/09/15 08:56:09;;;;;;;10.43;1.08;;;16.70;99.90;;;;;;4930143;29;20533;-82
2022/09/15 08:58:36;;;;;;;5.72;1.17;;;16.60;99.90;;;;;;4926091;29;20044;-91
2022/09/15 09:01:20;;;;;;;9.35;0.95;;;16.60;99.90;;;;;;4930983;29;20059;-94
2022/09/15 09:04:03;;;;;;;8.70;1.02;;;16.70;99.90;;;;;;4931587;29;20405;-94
2022/09/15 09:07:04;;;;;;;6.07;0.88;;;16.70;99.90;;;;;;4934769;29;20043;-92
2022/09/15 09:09:59;;;;;;;6.43;1.30;;;16.80;99.90;;;;;;4929781;29;20043;-94
2022/09/15 09:13:06;;;;;;;12.38;1.10;;;16.80;99.90;;;;;;4947511;29;20052;-93
2022/09/15 09:16:03;;;;;;;5.93;1.02;;;16.80;99.90;;;;;;4922568;29;20125;-94
2022/09/15 09:18:55;;;;;;;4.85;0.77;;;16.80;99.90;;;;;;4938189;29;20127;-93
2022/09/15 09:21:34;;;;;;;5.05;0.80;;;16.70;99.90;;;;;;4909745;29;20052;-95
2022/09/15 09:24:05;;;;;;;6.22;1.02;;;16.60;99.90;;;;;;4930163;29;20067;-94
2022/09/15 09:26:34;;;;;;;5.53;0.90;;;16.50;99.90;;;;;;4952647;29;20048;-94
2022/09/15 09:29:14;;;;;;;3.42;0.95;;;16.50;99.90;;;;;;4928667;29;20056;-94
2022/09/15 09:31:41;;;;;;;5.75;1.20;;;16.40;99.90;;;;;;4936980;29;20043;-93
2022/09/15 09:34:16;;;;;;;7.45;0.90;;;16.40;99.90;;;;;;4936992;29;20086;-93
2022/09/15 09:36:42;;;;;;;4.05;0.82;;;16.50;99.90;;;;;;4936944;29;20040;-94
2022/09/15 09:39:13;;;;;;;8.07;1.08;;;16.50;99.90;;;;;;4937732;29;20047;-94
2022/09/15 09:41:40;;;;;;;5.05;1.10;;;16.60;99.90;;;;;;4933946;29;20047;-93
2022/09/15 09:44:11;;;;;;;5.43;0.93;;;16.70;99.90;;;;;;4936020;29;20059;-94
2022/09/15 09:46:37;;;;;;;6.13;0.90;;;16.80;99.90;;;;;;4936352;29;20039;-94
2022/09/15 09:49:22;;;;;;;6.88;1.30;;;16.90;99.90;;;;;;4936865;29;20039;-94
2022/09/15 09:51:54;;;;;;;5.60;0.90;;;17.00;99.90;;;;;;4952205;29;20047;-93
2022/09/15 09:54:23;;;;;;;6.38;0.75;;;17.20;99.90;;;;;;4937477;29;20050;-94
2022/09/15 09:56:51;;;;;;;5.75;1.00;;;17.40;99.90;;;;;;4953382;29;20040;-94
2022/09/15 09:59:34;;;;;;;6.32;0.98;;;17.60;99.90;;;;;;4937540;29;20044;-94
2022/09/15 10:02:09;;;;;;;5.55;0.80;;;17.70;99.90;;;;;;4938511;29;20071;-94
2022/09/15 10:04:36;;;;;;;5.53;0.95;;;17.70;99.90;;;;;;4947221;29;20055;-94
2022/09/15 10:07:02;;;;;;;6.10;1.13;;;17.60;99.90;;;;;;4957514;29;20062;-94
2022/09/15 10:09:28;;;;;;;6.63;0.75;;;17.40;99.90;;;;;;4955176;29;20134;-93
2022/09/15 10:11:58;;;;;;;6.85;0.70;;;17.20;99.90;;;;;;4948049;29;20067;-86
2022/09/15 10:14:28;;;;;;;5.95;0.75;;;17.20;99.90;;;;;;4948618;29;20480;-86
2022/09/15 10:17:11;;;;;;;4.25;0.70;;;17.10;99.90;;;;;;4922049;29;20076;-86
2022/09/15 10:19:54;;;;;;;4.57;0.70;;;17.00;99.90;;;;;;4943491;29;20534;-88
2022/09/15 10:22:31;;;;;;;4.28;0.65;;;16.90;99.90;;;;;;4930626;29;20079;-90
2022/09/15 10:24:59;;;;;;;4.65;0.50;;;16.80;99.90;;;;;;4949844;29;20083;-92
2022/09/15 10:27:28;;;;;;;3.42;0.50;;;16.70;99.90;;;;;;4932559;29;20130;-91
2022/09/15 10:29:57;;;;;;;2.45;0.50;;;16.80;99.90;;;;;;4955108;29;20078;-90
2022/09/15 10:32:28;;;;;;;4.47;0.70;;;16.90;99.90;;;;;;4954391;29;20050;-94
2022/09/15 10:35:04;;;;;;;4.45;0.50;;;17.10;99.90;;;;;;4955922;29;20500;-93
2022/09/15 10:37:35;;;;;;;7.47;0.98;;;17.40;99.90;;;;;;4936839;29;20039;-94
2022/09/15 10:40:25;;;;;;;3.72;0.50;;;18.10;99.90;;;;;;4927478;29;20114;-93
2022/09/15 10:42:53;;;;;;;5.38;0.70;;;18.00;99.90;;;;;;4945837;29;20047;-92
2022/09/15 10:45:38;;;;;;;3.63;0.70;;;18.20;99.90;;;;;;4961351;29;20126;-94
2022/09/15 10:48:42;;;;;;;4.20;0.90;;;18.30;99.90;;;;;;4956393;29;20419;-94
2022/09/15 10:51:29;;;;;;;5.18;0.50;;;18.40;99.90;;;;;;4954881;29;20047;-93
2022/09/15 10:54:15;;;;;;;4.38;0.70;;;18.60;99.90;;;;;;4949742;29;20051;-94
2022/09/15 10:56:46;;;;;;;3.25;0.77;;;18.80;99.90;;;;;;4936516;29;20118;-94
2022/09/15 10:59:35;;;;;;;3.95;0.77;;;19.00;99.90;;;;;;4951574;29;20058;-93
2022/09/15 11:02:52;;;;;;;5.90;0.98;;;18.80;99.90;;;;;;4941086;29;20368;-94
2022/09/15 11:05:43;;;;;;;6.40;0.80;;;18.30;99.90;;;;;;4941259;29;20051;-94
2022/09/15 11:08:34;;;;;;;6.90;0.80;;;18.00;99.90;;;;;;4961433;29;20035;-94
2022/09/15 11:11:08;;;;;;;2.80;0.68;;;17.70;99.90;;;;;;4961195;29;20050;-93
2022/09/15 11:13:39;;;;;;;6.50;0.87;;;17.50;99.90;;;;;;4950491;29;20039;-94
2022/09/15 11:16:43;;;;;;;4.35;0.65;;;17.40;99.90;;;;;;4954212;29;20305;-94
2022/09/15 11:19:34;;;;;;;3.17;0.60;;;17.40;99.90;;;;;;4953455;29;20506;-94
2022/09/15 11:22:16;;;;;;;2.05;0.57;;;17.40;99.90;;;;;;4952917;29;20052;-94
2022/09/15 11:25:02;;;;;;;3.65;0.55;;;17.40;99.90;;;;;;4934460;29;20051;-88
2022/09/15 11:27:46;;;;;;;3.85;0.68;;;17.50;99.90;;;;;;4951897;29;20470;-90
2022/09/15 11:30:24;;;;;;;2.23;0.70;;;17.50;99.90;;;;;;4947799;29;20043;-92
2022/09/15 11:33:20;;;;;;;2.78;0.63;;;17.60;99.90;;;;;;4941900;29;20051;-91
2022/09/15 11:35:53;;;;;;;3.95;0.60;;;17.60;99.90;;;;;;4946954;29;20043;-93
2022/09/15 11:38:46;;;;;;;3.65;0.38;;;17.60;99.90;;;;;;4946628;29;20535;-92
2022/09/15 11:41:24;;;;;;;4.35;0.40;;;17.60;99.90;;;;;;4950325;29;20095;-92
2022/09/15 11:43:54;;;;;;;2.85;0.47;;;17.70;99.90;;;;;;4950030;29;20515;-92
2022/09/15 11:46:30;;;;;;;3.28;0.50;;;17.70;99.90;;;;;;4952078;29;20040;-92
2022/09/15 11:49:05;;;;;;;2.20;0.30;;;17.70;99.90;;;;;;4952960;29;20079;-94
2022/09/15 11:51:38;;;;;;;2.20;0.40;;;17.80;99.90;;;;;;4949570;28;20051;-94
2022/09/15 11:54:12;;;;;;;2.30;0.40;;;17.90;99.90;;;;;;4952533;29;20040;-93
2022/09/15 11:56:46;;;;;;;3.60;0.90;;;17.90;99.90;;;;;;4951669;29;20045;-94
2022/09/15 11:59:49;;;;;;;6.57;0.40;;;17.90;99.90;;;;;;4949793;29;20043;-94
2022/09/15 12:02:43;;;;;;;4.80;0.60;;;17.90;99.90;;;;;;4944444;29;20578;-94
2022/09/15 12:05:22;;;;;;;3.83;0.63;;;17.90;99.90;;;;;;4946608;29;20059;-95
2022/09/15 12:08:04;;;;;;;2.53;0.55;;;17.90;99.90;;;;;;4949257;29;20534;-93
2022/09/15 12:10:40;;;;;;;2.58;0.45;;;17.90;99.90;;;;;;4949507;29;20035;-96
2022/09/15 12:13:17;;;;;;;4.82;0.65;;;17.90;99.90;;;;;;4952288;29;20049;-86
2022/09/15 12:15:44;;;;;;;5.95;0.75;;;18.10;99.90;;;;;;4950617;29;20053;-94
2022/09/15 12:18:33;;;;;;;3.78;0.70;;;18.50;99.90;;;;;;4949649;29;20054;-92
2022/09/15 12:21:14;;;;;;;6.80;0.60;;;18.80;99.90;;;;;;4949488;28;20083;-92
2022/09/15 12:23:52;;;;;;;2.88;0.50;;;19.10;99.90;;;;;;4950938;29;20043;-91
2022/09/15 12:26:22;;;;;;;5.85;0.88;;;19.20;99.90;;;;;;4947367;29;20123;-90
2022/09/15 12:28:53;;;;;;;5.28;0.60;;;19.30;99.90;;;;;;4949721;28;20048;-91
2022/09/15 12:31:25;;;;;;;3.90;0.60;;;19.20;99.90;;;;;;4945660;29;20074;-91
2022/09/15 12:33:56;;;;;;;4.97;0.75;;;19.20;99.90;;;;;;4949862;29;20051;-91
2022/09/15 12:36:42;;;;;;;5.47;0.68;;;19.10;99.90;;;;;;4949939;29;20056;-91
2022/09/15 12:39:21;;;;;;;4.80;0.85;;;19.10;99.90;;;;;;4949762;29;20047;-91
2022/09/15 12:41:58;;;;;;;4.10;0.55;;;19.00;99.90;;;;;;4946767;29;20532;-92
2022/09/15 12:44:34;;;;;;;4.30;0.60;;;18.90;99.90;;;;;;4933508;29;20083;-91
2022/09/15 12:47:01;;;;;;;3.58;0.35;;;18.80;99.90;;;;;;4947602;29;20110;-91
2022/09/15 12:49:40;;;;;;;2.88;0.60;;;18.90;99.90;;;;;;4949044;29;20122;-91
2022/09/15 12:52:08;;;;;;;1.48;0.50;;;19.00;99.70;;;;;;4945233;29;20114;-89
2022/09/15 12:54:37;;;;;;;3.10;0.47;;;19.10;99.90;;;;;;4949723;29;20417;-90
2022/09/15 12:57:04;;;;;;;2.72;0.55;;;19.20;98.60;;;;;;4951873;28;20051;-90
2022/09/15 12:59:29;;;;;;;2.08;0.43;;;19.50;99.40;;;;;;4948421;29;20555;-90
2022/09/15 13:01:56;;;;;;;1.83;0.40;;;19.50;97.50;;;;;;4948256;29;20134;-90
2022/09/15 13:04:40;;;;;;;3.08;0.50;;;19.50;97.50;;;;;;4937091;28;20143;-90
2022/09/15 13:07:14;;;;;;;3.27;0.70;;;19.20;98.30;;;;;;4929222;29;20087;-91
2022/09/15 13:09:58;;;;;;;;;;;19.10;98.60;;;;;;4933008;29;20335;-91
2022/09/15 13:12:31;;;;;;;4.38;1.05;;;18.90;98.20;;;;;;4936238;29;19927;-91
2022/09/15 13:15:02;;;;;;;3.72;0.50;;;18.90;99.40;;;;;;4931800;29;20042;-92